createdAt,value
2023-03-15T00:02:15.585Z,6.97
2023-03-15T00:05:17.021Z,5.20
2023-03-15T00:08:19.163Z,6.63
2023-03-15T00:11:20.663Z,5.13
2023-03-15T00:14:22.675Z,4.83
2023-03-15T00:17:24.072Z,2.77
2023-03-15T00:20:25.579Z,4.10
2023-03-15T00:23:27.039Z,3.77
2023-03-15T00:26:28.770Z,5.90
2023-03-15T00:29:30.359Z,3.53
2023-03-15T00:32:31.896Z,3.73
2023-03-15T00:35:38.075Z,4.00
2023-03-15T00:38:41.078Z,4.00
2023-03-15T00:41:45.573Z,3.33
2023-03-15T00:44:47.187Z,3.90
2023-03-15T00:47:51.031Z,2.83
2023-03-15T00:51:00.935Z,2.90
2023-03-15T00:54:02.344Z,3.60
2023-03-15T00:57:04.105Z,5.90
2023-03-15T01:00:08.682Z,3.43
2023-03-15T01:03:10.126Z,1.60
2023-03-15T01:06:17.932Z,3.83
2023-03-15T01:09:19.423Z,2.97
2023-03-15T01:12:20.868Z,4.37
2023-03-15T01:15:22.454Z,4.77
2023-03-15T01:18:23.886Z,3.90
2023-03-15T01:21:25.680Z,4.40
2023-03-15T01:24:27.071Z,2.33
2023-03-15T01:27:28.450Z,2.20
2023-03-15T01:30:29.906Z,5.43
2023-03-15T01:33:31.422Z,4.10
2023-03-15T01:36:32.819Z,4.17
2023-03-15T01:39:34.416Z,4.10
2023-03-15T01:42:51.849Z,6.10
2023-03-15T01:46:01.326Z,5.00
2023-03-15T01:49:13.813Z,5.50
2023-03-15T01:52:26.101Z,2.47
2023-03-15T01:55:34.037Z,3.97
2023-03-15T01:58:46.386Z,3.23
2023-03-15T02:01:48.896Z,2.63
2023-03-15T02:04:57.607Z,4.63
2023-03-15T02:08:00.288Z,4.93
2023-03-15T02:11:06.358Z,2.07
2023-03-15T02:14:11.811Z,3.60
2023-03-15T02:17:15.265Z,4.87
2023-03-15T02:20:53.834Z,3.40
2023-03-15T02:24:39.283Z,3.60
2023-03-15T02:27:41.320Z,4.07
2023-03-15T02:30:43.718Z,3.03
2023-03-15T02:33:53.151Z,4.27
2023-03-15T02:36:56.040Z,4.33
2023-03-15T02:39:57.452Z,3.33
2023-03-15T02:43:15.513Z,2.83
2023-03-15T02:46:18.068Z,2.67
2023-03-15T02:49:23.135Z,4.03
2023-03-15T02:52:25.201Z,3.87
2023-03-15T02:55:26.649Z,3.17
2023-03-15T02:58:28.718Z,3.50
2023-03-15T03:01:31.825Z,5.40
2023-03-15T03:04:33.339Z,4.73
2023-03-15T03:07:36.101Z,3.93
2023-03-15T03:10:39.721Z,4.33
2023-03-15T03:13:41.895Z,3.63
2023-03-15T03:16:43.432Z,3.07
2023-03-15T03:19:45.111Z,3.53
2023-03-15T03:22:46.844Z,3.63
2023-03-15T03:25:48.240Z,4.40
2023-03-15T03:28:49.673Z,3.33
2023-03-15T03:31:51.185Z,3.43
2023-03-15T03:34:55.953Z,4.60
2023-03-15T03:37:58.641Z,4.77
2023-03-15T03:41:07.171Z,4.50
2023-03-15T03:44:09.009Z,6.20
2023-03-15T03:47:10.676Z,3.83
2023-03-15T03:50:12.406Z,4.37
2023-03-15T03:53:14.433Z,6.17
2023-03-15T03:56:16.008Z,5.83
2023-03-15T03:59:19.176Z,5.27
2023-03-15T04:02:27.952Z,4.20
2023-03-15T04:05:36.146Z,6.67
2023-03-15T04:08:37.634Z,5.63
2023-03-15T04:11:42.562Z,4.40
2023-03-15T04:14:43.991Z,5.27
2023-03-15T04:17:46.873Z,4.70
2023-03-15T04:20:48.453Z,5.90
2023-03-15T04:23:52.204Z,4.87
2023-03-15T04:27:06.959Z,6.70
2023-03-15T04:30:30.583Z,5.73
2023-03-15T04:33:41.134Z,4.90
2023-03-15T04:37:11.402Z,6.27
2023-03-15T04:40:36.134Z,6.10
2023-03-15T04:44:16.174Z,5.40
2023-03-15T04:47:37.851Z,6.00
2023-03-15T04:50:57.919Z,5.47
2023-03-15T04:54:09.989Z,3.97
2023-03-15T04:57:27.297Z,3.50
2023-03-15T05:00:47.702Z,2.97
2023-03-15T05:04:18.363Z,4.03
2023-03-15T05:07:35.863Z,3.47
2023-03-15T05:10:45.637Z,3.70
2023-03-15T05:14:25.639Z,5.10
2023-03-15T05:17:50.206Z,4.27
2023-03-15T05:21:07.990Z,5.03
2023-03-15T05:24:32.216Z,4.27
2023-03-15T05:27:52.798Z,4.40
2023-03-15T05:31:02.590Z,4.17
2023-03-15T05:34:24.316Z,4.17
2023-03-15T05:37:44.366Z,4.67
2023-03-15T05:40:57.743Z,8.07
2023-03-15T05:44:11.387Z,4.27
2023-03-15T05:47:51.029Z,4.23
2023-03-15T05:51:10.695Z,4.30
2023-03-15T05:54:42.329Z,6.33
2023-03-15T05:58:06.223Z,3.97
2023-03-15T06:01:18.494Z,5.57
2023-03-15T06:04:39.275Z,6.27
2023-03-15T06:07:41.814Z,6.73
2023-03-15T06:10:43.526Z,5.30
2023-03-15T06:13:46.218Z,6.50
2023-03-15T06:16:58.853Z,5.23
2023-03-15T06:20:01.895Z,6.83
2023-03-15T06:23:04.266Z,6.07
2023-03-15T06:26:15.129Z,4.67
2023-03-15T06:29:17.275Z,5.50
2023-03-15T06:32:21.903Z,4.90
2023-03-15T06:35:24.211Z,6.33
2023-03-15T06:38:25.819Z,6.10
2023-03-15T06:41:27.281Z,8.80
2023-03-15T06:44:36.073Z,6.40
2023-03-15T06:47:41.240Z,8.63
2023-03-15T06:50:47.389Z,5.33
2023-03-15T06:53:49.846Z,9.17
2023-03-15T06:56:51.469Z,7.43
2023-03-15T06:59:54.088Z,7.77
2023-03-15T07:02:55.528Z,6.90
2023-03-15T07:05:56.937Z,5.80
2023-03-15T07:08:58.311Z,6.93
2023-03-15T07:11:59.684Z,8.03
2023-03-15T07:15:01.083Z,6.03
2023-03-15T07:18:02.768Z,8.20
2023-03-15T07:21:05.220Z,7.53
2023-03-15T07:24:06.777Z,8.33
2023-03-15T07:27:14.451Z,6.93
2023-03-15T07:30:17.598Z,7.20
2023-03-15T07:33:22.294Z,5.03
2023-03-15T07:36:23.879Z,7.47
2023-03-15T07:39:26.699Z,9.00
2023-03-15T07:42:28.189Z,7.03
2023-03-15T07:45:35.045Z,9.40
2023-03-15T07:48:36.529Z,10.27
2023-03-15T07:51:38.068Z,6.13
2023-03-15T07:54:39.457Z,5.17
2023-03-15T07:57:41.052Z,9.07
2023-03-15T08:00:42.634Z,5.87
2023-03-15T08:03:44.065Z,7.47
2023-03-15T08:06:45.548Z,7.27
2023-03-15T08:09:47.116Z,7.30
2023-03-15T08:12:48.732Z,7.20
2023-03-15T08:15:50.606Z,5.93
2023-03-15T08:18:52.083Z,8.50
2023-03-15T08:21:53.924Z,7.63
2023-03-15T08:24:57.417Z,6.57
2023-03-15T08:27:58.862Z,4.93
2023-03-15T08:31:00.352Z,6.03
2023-03-15T08:34:01.926Z,7.63
2023-03-15T08:37:03.580Z,7.53
2023-03-15T08:40:09.323Z,7.00
2023-03-15T08:43:10.797Z,5.80
2023-03-15T08:46:12.808Z,5.93
2023-03-15T08:49:14.274Z,7.10
2023-03-15T08:52:18.038Z,6.50
2023-03-15T08:55:20.638Z,10.30
2023-03-15T08:58:22.180Z,6.07
2023-03-15T09:01:24.041Z,6.77
2023-03-15T09:04:25.548Z,3.87
2023-03-15T09:07:26.992Z,6.67
2023-03-15T09:10:35.147Z,4.80
2023-03-15T09:13:36.566Z,5.83
2023-03-15T09:16:38.051Z,7.07
2023-03-15T09:19:39.768Z,6.57
2023-03-15T09:22:42.528Z,4.17
2023-03-15T09:25:44.040Z,8.43
2023-03-15T09:28:45.445Z,5.87
2023-03-15T09:31:46.998Z,4.40
2023-03-15T09:34:49.616Z,5.20
2023-03-15T09:37:51.215Z,5.83
2023-03-15T09:41:00.213Z,7.20
2023-03-15T09:44:44.479Z,8.53
2023-03-15T09:48:05.345Z,4.07
2023-03-15T09:51:10.267Z,5.90
2023-03-15T09:54:20.284Z,7.10
2023-03-15T09:57:40.964Z,7.83
2023-03-15T10:00:49.736Z,4.30
2023-03-15T10:03:53.587Z,4.37
2023-03-15T10:07:01.726Z,4.83
2023-03-15T10:10:04.935Z,4.93
2023-03-15T10:13:25.613Z,3.90
2023-03-15T10:16:37.946Z,4.30
2023-03-15T10:19:50.030Z,3.90
2023-03-15T10:23:00.875Z,6.83
2023-03-15T10:26:06.135Z,4.37
2023-03-15T10:29:14.726Z,4.13
2023-03-15T10:32:19.186Z,8.00
2023-03-15T10:35:21.442Z,3.00
2023-03-15T10:38:25.388Z,5.17
2023-03-15T10:41:29.109Z,3.73
2023-03-15T10:44:36.642Z,4.83
2023-03-15T10:47:50.401Z,3.90
2023-03-15T10:50:57.251Z,4.00
2023-03-15T10:54:16.056Z,6.57
2023-03-15T10:57:21.255Z,3.77
2023-03-15T11:00:23.887Z,4.60
2023-03-15T11:03:26.637Z,3.67
2023-03-15T11:06:28.879Z,3.53
2023-03-15T11:10:02.051Z,4.03
2023-03-15T11:13:30.817Z,4.07
2023-03-15T11:16:37.565Z,4.30
2023-03-15T11:19:42.142Z,4.50
2023-03-15T11:22:43.708Z,3.07
2023-03-15T11:25:45.840Z,4.83
2023-03-15T11:28:52.906Z,5.73
2023-03-15T11:31:55.751Z,5.03
2023-03-15T11:35:06.531Z,3.23
2023-03-15T11:38:17.235Z,4.07
2023-03-15T11:41:42.583Z,3.10
2023-03-15T11:44:47.495Z,2.53
2023-03-15T11:47:57.802Z,2.37
2023-03-15T11:51:01.058Z,4.83
2023-03-15T11:54:05.507Z,3.63
2023-03-15T11:57:30.502Z,3.80
2023-03-15T12:00:34.938Z,3.30
2023-03-15T12:03:44.644Z,3.90
2023-03-15T12:06:46.063Z,4.13
2023-03-15T12:09:56.368Z,3.80
2023-03-15T12:13:05.468Z,3.33
2023-03-15T12:16:07.203Z,2.13
2023-03-15T12:19:18.142Z,4.33
2023-03-15T12:22:19.910Z,4.57
2023-03-15T12:25:39.505Z,3.67
2023-03-15T12:29:13.852Z,4.57
2023-03-15T12:32:19.160Z,4.43
2023-03-15T12:35:23.861Z,4.53
2023-03-15T12:38:25.360Z,6.17
2023-03-15T12:41:39.622Z,4.50
2023-03-15T12:44:43.099Z,5.50
2023-03-15T12:47:45.416Z,5.03
2023-03-15T12:50:47.945Z,3.83
2023-03-15T12:53:52.031Z,5.27
2023-03-15T12:57:00.027Z,4.80
2023-03-15T13:00:16.684Z,5.03
2023-03-15T13:03:23.663Z,3.73
2023-03-15T13:06:50.730Z,4.33
2023-03-15T13:10:07.073Z,4.07
2023-03-15T13:13:38.861Z,4.00
2023-03-15T13:16:57.985Z,4.00
2023-03-15T13:20:17.522Z,5.10
2023-03-15T13:23:27.281Z,4.50
2023-03-15T13:26:50.999Z,3.23
2023-03-15T13:29:52.398Z,3.43
2023-03-15T13:33:09.012Z,3.53
2023-03-15T13:36:23.429Z,3.13
2023-03-15T13:39:28.341Z,2.87
2023-03-15T13:42:29.978Z,4.20
2023-03-15T13:45:31.445Z,2.50
2023-03-15T13:48:36.918Z,3.67
2023-03-15T13:51:39.483Z,2.30
2023-03-15T13:54:41.993Z,3.40
2023-03-15T13:57:43.675Z,2.40
2023-03-15T14:00:47.103Z,2.77
2023-03-15T14:03:56.449Z,2.40
2023-03-15T14:07:20.085Z,2.40
2023-03-15T14:10:24.780Z,2.00
2023-03-15T14:13:35.723Z,2.30
2023-03-15T14:17:01.223Z,1.90
2023-03-15T14:20:08.911Z,1.77
2023-03-15T14:23:16.727Z,2.10
2023-03-15T14:26:27.600Z,2.50
2023-03-15T14:29:32.671Z,2.53
2023-03-15T14:32:37.186Z,2.50
2023-03-15T14:35:38.549Z,2.40
2023-03-15T14:38:40.059Z,3.10
2023-03-15T14:41:41.546Z,2.40
2023-03-15T14:44:43.026Z,2.17
2023-03-15T14:47:58.128Z,2.87
2023-03-15T14:50:59.840Z,2.77
2023-03-15T14:54:01.643Z,1.67
2023-03-15T14:57:03.082Z,3.07
2023-03-15T15:00:06.679Z,2.10
2023-03-15T15:03:17.995Z,2.17
2023-03-15T15:06:19.668Z,2.07
2023-03-15T15:09:23.630Z,2.00
2023-03-15T15:12:25.038Z,2.03
2023-03-15T15:15:26.640Z,2.50
2023-03-15T15:18:30.914Z,2.23
2023-03-15T15:21:34.168Z,1.90
2023-03-15T15:24:35.704Z,2.77
2023-03-15T15:27:37.078Z,2.00
2023-03-15T15:30:38.696Z,2.40
2023-03-15T15:33:40.154Z,2.33
2023-03-15T15:36:45.860Z,1.60
2023-03-15T15:39:47.617Z,2.03
2023-03-15T15:42:49.052Z,3.27
2023-03-15T15:45:50.534Z,2.60
2023-03-15T15:48:52.536Z,3.27
2023-03-15T15:51:54.105Z,4.90
2023-03-15T15:54:55.589Z,2.90
2023-03-15T15:57:57.838Z,4.80
2023-03-15T16:00:59.269Z,3.27
2023-03-15T16:04:01.970Z,3.90
2023-03-15T16:07:03.935Z,4.10
2023-03-15T16:10:07.423Z,4.40
2023-03-15T16:13:11.271Z,3.00
2023-03-15T16:16:15.355Z,3.53
2023-03-15T16:19:16.793Z,3.20
2023-03-15T16:22:20.456Z,4.63
2023-03-15T16:25:26.441Z,3.40
2023-03-15T16:28:28.637Z,4.47
2023-03-15T16:31:33.629Z,3.27
2023-03-15T16:34:35.040Z,4.77
2023-03-15T16:37:36.584Z,3.97
2023-03-15T16:40:42.018Z,3.27
2023-03-15T16:43:44.066Z,6.63
2023-03-15T16:46:46.070Z,3.47
2023-03-15T16:49:47.579Z,3.03
2023-03-15T16:52:54.389Z,3.77
2023-03-15T16:55:55.933Z,3.10
2023-03-15T16:58:57.317Z,5.17
2023-03-15T17:01:58.929Z,3.83
2023-03-15T17:05:00.512Z,3.10
2023-03-15T17:08:02.236Z,5.03
2023-03-15T17:11:03.663Z,5.77
2023-03-15T17:14:06.314Z,4.17
2023-03-15T17:17:08.603Z,5.70
2023-03-15T17:20:12.425Z,3.73
2023-03-15T17:23:14.627Z,5.80
2023-03-15T17:26:19.225Z,4.83
2023-03-15T17:29:21.119Z,3.37
2023-03-15T17:32:23.081Z,3.80
2023-03-15T17:35:30.023Z,4.30
2023-03-15T17:38:32.809Z,4.23
2023-03-15T17:41:37.057Z,6.33
2023-03-15T17:44:38.443Z,4.47
2023-03-15T17:47:39.821Z,6.50
2023-03-15T17:50:44.385Z,6.20
2023-03-15T17:53:46.190Z,6.03
2023-03-15T17:56:47.595Z,6.63
2023-03-15T17:59:48.972Z,7.60
2023-03-15T18:02:58.821Z,7.73
2023-03-15T18:06:01.337Z,7.70
2023-03-15T18:09:02.746Z,7.43
2023-03-15T18:12:04.427Z,7.97
2023-03-15T18:15:06.491Z,7.60
2023-03-15T18:18:08.016Z,7.77
2023-03-15T18:21:21.442Z,9.07
2023-03-15T18:24:22.961Z,9.47
2023-03-15T18:27:24.356Z,10.77
2023-03-15T18:30:28.370Z,13.07
2023-03-15T18:33:31.400Z,12.83
2023-03-15T18:36:32.865Z,14.53
2023-03-15T18:39:34.253Z,13.33
2023-03-15T18:42:35.651Z,11.43
2023-03-15T18:45:37.314Z,13.83
2023-03-15T18:48:41.036Z,11.93
2023-03-15T18:51:42.737Z,11.80
2023-03-15T18:54:44.161Z,15.57
2023-03-15T18:57:46.026Z,12.70
2023-03-15T19:00:48.954Z,16.17
2023-03-15T19:03:51.421Z,13.80
2023-03-15T19:06:52.896Z,18.53
2023-03-15T19:09:54.278Z,17.37
2023-03-15T19:12:55.866Z,22.83
2023-03-15T19:15:57.729Z,22.03
2023-03-15T19:18:59.180Z,19.83
2023-03-15T19:22:00.625Z,16.43
2023-03-15T19:25:02.059Z,12.73
2023-03-15T19:28:03.662Z,17.77
2023-03-15T19:31:05.354Z,15.10
2023-03-15T19:34:06.759Z,14.37
2023-03-15T19:37:08.958Z,12.90
2023-03-15T19:40:12.344Z,15.07
2023-03-15T19:43:15.031Z,21.93
2023-03-15T19:46:17.258Z,24.37
2023-03-15T19:49:18.705Z,17.53
2023-03-15T19:52:21.135Z,15.10
2023-03-15T19:55:22.525Z,14.40
2023-03-15T19:58:24.125Z,12.90
2023-03-15T20:01:25.612Z,14.27
2023-03-15T20:04:27.278Z,12.47
2023-03-15T20:07:28.754Z,10.87
2023-03-15T20:10:30.266Z,10.10
2023-03-15T20:13:32.020Z,11.67
2023-03-15T20:16:33.499Z,9.67
2023-03-15T20:19:35.994Z,11.87
2023-03-15T20:22:40.629Z,13.17
2023-03-15T20:25:43.166Z,16.33
2023-03-15T20:28:47.154Z,12.63
2023-03-15T20:31:49.311Z,10.60
2023-03-15T20:34:56.956Z,11.60
2023-03-15T20:38:06.329Z,11.33
2023-03-15T20:41:07.867Z,14.50
2023-03-15T20:44:09.789Z,11.10
2023-03-15T20:47:11.237Z,10.37
2023-03-15T20:50:13.125Z,11.37
2023-03-15T20:53:14.578Z,9.97
2023-03-15T20:56:17.766Z,9.30
2023-03-15T20:59:19.213Z,8.93
2023-03-15T21:02:22.293Z,8.63
2023-03-15T21:05:24.247Z,7.40
2023-03-15T21:08:25.633Z,8.50
2023-03-15T21:11:27.360Z,9.30
2023-03-15T21:14:28.830Z,9.17
2023-03-15T21:17:30.265Z,8.43
2023-03-15T21:20:32.552Z,6.87
2023-03-15T21:23:34.708Z,6.97
2023-03-15T21:26:37.968Z,8.40
2023-03-15T21:29:40.075Z,7.67
2023-03-15T21:32:42.756Z,10.27
2023-03-15T21:35:44.479Z,8.80
2023-03-15T21:38:45.858Z,11.13
2023-03-15T21:41:47.777Z,13.10
2023-03-15T21:44:49.255Z,12.10
2023-03-15T21:47:52.524Z,11.53
2023-03-15T21:50:54.048Z,14.53
2023-03-15T21:53:55.827Z,12.80
2023-03-15T21:56:58.061Z,15.03
2023-03-15T21:59:59.563Z,13.70
2023-03-15T22:03:01.372Z,13.03
2023-03-15T22:06:03.562Z,8.90
2023-03-15T22:09:04.962Z,10.00
2023-03-15T22:12:07.120Z,8.83
2023-03-15T22:15:09.669Z,8.67
2023-03-15T22:18:11.054Z,8.73
2023-03-15T22:21:12.485Z,10.93
2023-03-15T22:24:14.848Z,10.77
2023-03-15T22:27:16.624Z,11.23
2023-03-15T22:30:18.759Z,11.23
2023-03-15T22:33:22.091Z,8.83
2023-03-15T22:36:23.580Z,11.37
2023-03-15T22:39:25.982Z,10.33
2023-03-15T22:42:27.373Z,9.40
2023-03-15T22:45:28.899Z,9.57
2023-03-15T22:48:30.795Z,7.97
2023-03-15T22:51:32.201Z,7.53
2023-03-15T22:54:33.587Z,9.40
2023-03-15T22:57:35.129Z,9.03
2023-03-15T23:00:36.556Z,7.90
2023-03-15T23:03:37.961Z,6.93
2023-03-15T23:06:39.351Z,6.90
2023-03-15T23:09:40.757Z,7.40
2023-03-15T23:12:42.208Z,8.13
2023-03-15T23:15:43.669Z,8.47
2023-03-15T23:18:45.369Z,10.17
2023-03-15T23:21:46.800Z,10.80
2023-03-15T23:24:48.185Z,9.27
2023-03-15T23:27:50.824Z,8.13
2023-03-15T23:30:52.207Z,8.77
2023-03-15T23:33:53.624Z,8.93
2023-03-15T23:36:55.062Z,9.30
2023-03-15T23:39:56.455Z,9.47
2023-03-15T23:43:00.753Z,10.63
2023-03-15T23:46:04.346Z,8.60
2023-03-15T23:49:05.814Z,10.10
2023-03-15T23:52:07.563Z,10.03
2023-03-15T23:55:09.792Z,10.17
2023-03-15T23:58:11.179Z,8.37
